sensor_id;sensor_type;location;lat;lon;timestamp;P1;durP1;ratioP1;P2;durP2;ratioP2
36445;SDS011;22472;50.848;-1.216;2022-07-21T00:01:50;9.43;;;4.75;;
36445;SDS011;22472;50.848;-1.216;2022-07-21T00:04:18;7.65;;;4.57;;
36445;SDS011;22472;50.848;-1.216;2022-07-21T00:06:46;8.98;;;5.03;;
36445;SDS011;22472;50.848;-1.216;2022-07-21T00:09:13;8.07;;;4.65;;
36445;SDS011;22472;50.848;-1.216;2022-07-21T00:11:41;11.73;;;5.18;;
36445;SDS011;22472;50.848;-1.216;2022-07-21T00:14:09;11.40;;;5.22;;
36445;SDS011;22472;50.848;-1.216;2022-07-21T00:16:36;9.00;;;5.00;;
36445;SDS011;22472;50.848;-1.216;2022-07-21T00:19:06;9.23;;;4.88;;
36445;SDS011;22472;50.848;-1.216;2022-07-21T00:21:34;8.07;;;4.15;;
36445;SDS011;22472;50.848;-1.216;2022-07-21T00:24:01;12.13;;;5.10;;
36445;SDS011;22472;50.848;-1.216;2022-07-21T00:26:28;9.95;;;4.47;;
36445;SDS011;22472;50.848;-1.216;2022-07-21T00:28:56;10.38;;;4.95;;
36445;SDS011;22472;50.848;-1.216;2022-07-21T00:31:23;10.95;;;4.80;;
36445;SDS011;22472;50.848;-1.216;2022-07-21T00:33:50;10.27;;;4.50;;
36445;SDS011;22472;50.848;-1.216;2022-07-21T00:36:19;7.40;;;3.70;;
36445;SDS011;22472;50.848;-1.216;2022-07-21T00:38:46;6.80;;;3.45;;
36445;SDS011;22472;50.848;-1.216;2022-07-21T00:41:14;6.05;;;2.33;;
36445;SDS011;22472;50.848;-1.216;2022-07-21T00:43:41;5.68;;;2.00;;
36445;SDS011;22472;50.848;-1.216;2022-07-21T00:46:08;4.78;;;1.63;;
36445;SDS011;22472;50.848;-1.216;2022-07-21T00:48:35;5.88;;;1.27;;
36445;SDS011;22472;50.848;-1.216;2022-07-21T00:51:02;4.85;;;1.38;;
36445;SDS011;22472;50.848;-1.216;2022-07-21T00:53:31;5.45;;;1.20;;
36445;SDS011;22472;50.848;-1.216;2022-07-21T00:55:58;5.20;;;0.57;;
36445;SDS011;22472;50.848;-1.216;2022-07-21T00:58:26;6.00;;;0.90;;
36445;SDS011;22472;50.848;-1.216;2022-07-21T01:00:53;3.00;;;0.80;;
36445;SDS011;22472;50.848;-1.216;2022-07-21T01:03:20;5.30;;;0.88;;
36445;SDS011;22472;50.848;-1.216;2022-07-21T01:05:47;2.63;;;0.52;;
36445;SDS011;22472;50.848;-1.216;2022-07-21T01:08:14;1.63;;;0.40;;
36445;SDS011;22472;50.848;-1.216;2022-07-21T01:10:43;4.38;;;0.70;;
36445;SDS011;22472;50.848;-1.216;2022-07-21T01:13:10;1.95;;;0.50;;
36445;SDS011;22472;50.848;-1.216;2022-07-21T01:15:37;3.15;;;0.60;;
36445;SDS011;22472;50.848;-1.216;2022-07-21T01:18:04;3.05;;;0.50;;
36445;SDS011;22472;50.848;-1.216;2022-07-21T01:20:32;6.60;;;0.70;;
36445;SDS011;22472;50.848;-1.216;2022-07-21T01:23:02;3.45;;;0.47;;
36445;SDS011;22472;50.848;-1.216;2022-07-21T01:25:29;5.40;;;0.70;;
36445;SDS011;22472;50.848;-1.216;2022-07-21T01:27:57;3.72;;;0.47;;
36445;SDS011;22472;50.848;-1.216;2022-07-21T01:30:24;2.47;;;0.68;;
36445;SDS011;22472;50.848;-1.216;2022-07-21T01:32:51;2.95;;;0.43;;
36445;SDS011;22472;50.848;-1.216;2022-07-21T01:35:19;4.40;;;0.70;;
36445;SDS011;22472;50.848;-1.216;2022-07-21T01:37:47;2.83;;;0.60;;
36445;SDS011;22472;50.848;-1.216;2022-07-21T01:40:16;4.97;;;0.50;;
36445;SDS011;22472;50.848;-1.216;2022-07-21T01:43:01;2.05;;;0.50;;
36445;SDS011;22472;50.848;-1.216;2022-07-21T01:45:29;4.82;;;0.47;;
36445;SDS011;22472;50.848;-1.216;2022-07-21T01:47:57;4.85;;;0.50;;
36445;SDS011;22472;50.848;-1.216;2022-07-21T01:50:24;4.45;;;0.60;;
36445;SDS011;22472;50.848;-1.216;2022-07-21T01:52:53;3.08;;;0.43;;
36445;SDS011;22472;50.848;-1.216;2022-07-21T01:55:23;3.70;;;0.52;;
36445;SDS011;22472;50.848;-1.216;2022-07-21T01:57:51;3.95;;;0.50;;
36445;SDS011;22472;50.848;-1.216;2022-07-21T02:00:18;2.55;;;0.50;;
36445;SDS011;22472;50.848;-1.216;2022-07-21T02:06:08;3.47;;;0.40;;
36445;SDS011;22472;50.848;-1.216;2022-07-21T02:08:35;3.17;;;0.68;;
36445;SDS011;22472;50.848;-1.216;2022-07-21T02:11:05;6.95;;;0.50;;
36445;SDS011;22472;50.848;-1.216;2022-07-21T02:13:33;5.28;;;0.55;;
36445;SDS011;22472;50.848;-1.216;2022-07-21T02:16:00;2.85;;;0.40;;
36445;SDS011;22472;50.848;-1.216;2022-07-21T02:18:27;4.05;;;0.80;;
36445;SDS011;22472;50.848;-1.216;2022-07-21T02:20:55;6.15;;;0.60;;
36445;SDS011;22472;50.848;-1.216;2022-07-21T02:23:22;3.95;;;0.50;;
36445;SDS011;22472;50.848;-1.216;2022-07-21T02:25:50;5.00;;;0.65;;
36445;SDS011;22472;50.848;-1.216;2022-07-21T02:28:20;3.38;;;0.68;;
36445;SDS011;22472;50.848;-1.216;2022-07-21T02:30:47;3.78;;;0.40;;
36445;SDS011;22472;50.848;-1.216;2022-07-21T02:33:15;4.63;;;0.47;;
36445;SDS011;22472;50.848;-1.216;2022-07-21T02:35:43;2.35;;;0.60;;
36445;SDS011;22472;50.848;-1.216;2022-07-21T02:38:10;3.35;;;0.45;;
36445;SDS011;22472;50.848;-1.216;2022-07-21T02:40:38;2.33;;;0.40;;
36445;SDS011;22472;50.848;-1.216;2022-07-21T02:43:05;3.90;;;0.50;;
36445;SDS011;22472;50.848;-1.216;2022-07-21T02:45:35;3.88;;;0.30;;
36445;SDS011;22472;50.848;-1.216;2022-07-21T02:48:02;5.55;;;0.68;;
36445;SDS011;22472;50.848;-1.216;2022-07-21T02:50:32;7.45;;;0.60;;
36445;SDS011;22472;50.848;-1.216;2022-07-21T02:53:01;4.57;;;0.40;;
36445;SDS011;22472;50.848;-1.216;2022-07-21T02:55:30;3.00;;;0.50;;
36445;SDS011;22472;50.848;-1.216;2022-07-21T02:58:04;3.88;;;0.50;;
36445;SDS011;22472;50.848;-1.216;2022-07-21T03:00:32;2.72;;;0.47;;
36445;SDS011;22472;50.848;-1.216;2022-07-21T03:03:01;2.42;;;0.50;;
36445;SDS011;22472;50.848;-1.216;2022-07-21T03:05:29;3.05;;;0.47;;
36445;SDS011;22472;50.848;-1.216;2022-07-21T03:07:56;4.60;;;0.50;;
36445;SDS011;22472;50.848;-1.216;2022-07-21T03:10:23;6.30;;;0.50;;
36445;SDS011;22472;50.848;-1.216;2022-07-21T03:12:50;6.40;;;0.60;;
36445;SDS011;22472;50.848;-1.216;2022-07-21T03:15:17;2.90;;;0.40;;
36445;SDS011;22472;50.848;-1.216;2022-07-21T03:17:46;3.35;;;0.50;;
36445;SDS011;22472;50.848;-1.216;2022-07-21T03:20:13;1.55;;;0.50;;
36445;SDS011;22472;50.848;-1.216;2022-07-21T03:22:41;3.08;;;0.50;;
36445;SDS011;22472;50.848;-1.216;2022-07-21T03:25:08;6.38;;;0.68;;
36445;SDS011;22472;50.848;-1.216;2022-07-21T03:27:35;2.90;;;0.60;;
36445;SDS011;22472;50.848;-1.216;2022-07-21T03:30:06;3.67;;;0.85;;
36445;SDS011;22472;50.848;-1.216;2022-07-21T03:32:34;2.78;;;0.70;;
36445;SDS011;22472;50.848;-1.216;2022-07-21T03:35:04;3.13;;;0.80;;
36445;SDS011;22472;50.848;-1.216;2022-07-21T03:37:32;3.40;;;0.80;;
36445;SDS011;22472;50.848;-1.216;2022-07-21T03:40:06;2.85;;;0.90;;
36445;SDS011;22472;50.848;-1.216;2022-07-21T03:42:34;3.50;;;0.63;;
36445;SDS011;22472;50.848;-1.216;2022-07-21T03:45:01;3.03;;;0.90;;
36445;SDS011;22472;50.848;-1.216;2022-07-21T03:47:28;2.28;;;0.80;;
36445;SDS011;22472;50.848;-1.216;2022-07-21T03:49:55;4.20;;;0.65;;
36445;SDS011;22472;50.848;-1.216;2022-07-21T03:52:23;2.60;;;0.60;;
36445;SDS011;22472;50.848;-1.216;2022-07-21T03:54:50;3.15;;;0.60;;
36445;SDS011;22472;50.848;-1.216;2022-07-21T03:57:33;2.78;;;0.70;;
36445;SDS011;22472;50.848;-1.216;2022-07-21T04:00:01;4.47;;;0.60;;
36445;SDS011;22472;50.848;-1.216;2022-07-21T04:02:29;3.20;;;0.88;;
36445;SDS011;22472;50.848;-1.216;2022-07-21T04:04:56;3.50;;;0.73;;
36445;SDS011;22472;50.848;-1.216;2022-07-21T04:07:24;2.70;;;0.60;;
36445;SDS011;22472;50.848;-1.216;2022-07-21T04:09:51;4.55;;;0.73;;
36445;SDS011;22472;50.848;-1.216;2022-07-21T04:12:18;4.28;;;0.50;;
36445;SDS011;22472;50.848;-1.216;2022-07-21T04:14:45;4.80;;;0.70;;
36445;SDS011;22472;50.848;-1.216;2022-07-21T04:17:12;3.90;;;0.68;;
36445;SDS011;22472;50.848;-1.216;2022-07-21T04:19:39;4.50;;;0.63;;
36445;SDS011;22472;50.848;-1.216;2022-07-21T04:22:06;2.75;;;0.50;;
36445;SDS011;22472;50.848;-1.216;2022-07-21T04:24:35;5.10;;;0.90;;
36445;SDS011;22472;50.848;-1.216;2022-07-21T04:27:02;4.75;;;0.60;;
36445;SDS011;22472;50.848;-1.216;2022-07-21T04:29:29;3.92;;;0.50;;
36445;SDS011;22472;50.848;-1.216;2022-07-21T04:31:56;4.47;;;0.70;;
36445;SDS011;22472;50.848;-1.216;2022-07-21T04:34:23;3.60;;;0.60;;
36445;SDS011;22472;50.848;-1.216;2022-07-21T04:36:50;5.25;;;0.70;;
36445;SDS011;22472;50.848;-1.216;2022-07-21T04:39:17;3.53;;;0.60;;
36445;SDS011;22472;50.848;-1.216;2022-07-21T04:41:46;5.32;;;0.65;;
36445;SDS011;22472;50.848;-1.216;2022-07-21T04:44:13;3.63;;;0.70;;
36445;SDS011;22472;50.848;-1.216;2022-07-21T04:46:39;3.83;;;0.47;;
36445;SDS011;22472;50.848;-1.216;2022-07-21T04:49:06;2.97;;;0.60;;
36445;SDS011;22472;50.848;-1.216;2022-07-21T04:51:33;5.47;;;0.50;;
36445;SDS011;22472;50.848;-1.216;2022-07-21T04:54:00;3.72;;;0.70;;
36445;SDS011;22472;50.848;-1.216;2022-07-21T04:56:27;3.53;;;0.70;;
36445;SDS011;22472;50.848;-1.216;2022-07-21T04:58:56;6.57;;;0.90;;
36445;SDS011;22472;50.848;-1.216;2022-07-21T05:01:25;4.60;;;0.75;;
36445;SDS011;22472;50.848;-1.216;2022-07-21T05:03:52;7.03;;;0.60;;
36445;SDS011;22472;50.848;-1.216;2022-07-21T05:06:19;4.15;;;0.60;;
36445;SDS011;22472;50.848;-1.216;2022-07-21T05:08:46;5.85;;;0.80;;
36445;SDS011;22472;50.848;-1.216;2022-07-21T05:11:13;5.07;;;0.73;;
36445;SDS011;22472;50.848;-1.216;2022-07-21T05:13:40;2.88;;;0.50;;
36445;SDS011;22472;50.848;-1.216;2022-07-21T05:16:09;4.90;;;0.90;;
36445;SDS011;22472;50.848;-1.216;2022-07-21T05:18:36;6.53;;;1.00;;
36445;SDS011;22472;50.848;-1.216;2022-07-21T05:21:03;4.75;;;0.80;;
36445;SDS011;22472;50.848;-1.216;2022-07-21T05:23:30;3.63;;;0.80;;
36445;SDS011;22472;50.848;-1.216;2022-07-21T05:25:57;4.22;;;0.60;;
36445;SDS011;22472;50.848;-1.216;2022-07-21T05:28:24;4.30;;;0.80;;
36445;SDS011;22472;50.848;-1.216;2022-07-21T05:30:53;4.18;;;0.75;;
36445;SDS011;22472;50.848;-1.216;2022-07-21T05:33:22;4.43;;;0.60;;
36445;SDS011;22472;50.848;-1.216;2022-07-21T05:35:49;6.75;;;1.00;;
36445;SDS011;22472;50.848;-1.216;2022-07-21T05:38:16;6.18;;;0.95;;
36445;SDS011;22472;50.848;-1.216;2022-07-21T05:40:43;6.90;;;1.10;;
36445;SDS011;22472;50.848;-1.216;2022-07-21T05:43:10;3.25;;;1.02;;
36445;SDS011;22472;50.848;-1.216;2022-07-21T05:45:37;3.95;;;0.95;;
36445;SDS011;22472;50.848;-1.216;2022-07-21T05:48:04;6.05;;;0.90;;
36445;SDS011;22472;50.848;-1.216;2022-07-21T05:50:33;7.72;;;0.98;;
36445;SDS011;22472;50.848;-1.216;2022-07-21T05:53:00;5.88;;;0.70;;
36445;SDS011;22472;50.848;-1.216;2022-07-21T05:55:27;4.07;;;0.90;;
36445;SDS011;22472;50.848;-1.216;2022-07-21T05:57:54;6.05;;;1.00;;
36445;SDS011;22472;50.848;-1.216;2022-07-21T06:00:21;4.38;;;0.90;;
36445;SDS011;22472;50.848;-1.216;2022-07-21T06:02:48;4.03;;;1.17;;
36445;SDS011;22472;50.848;-1.216;2022-07-21T06:05:16;3.22;;;1.10;;
36445;SDS011;22472;50.848;-1.216;2022-07-21T06:11:08;3.63;;;1.08;;
36445;SDS011;22472;50.848;-1.216;2022-07-21T06:13:37;4.32;;;1.17;;
36445;SDS011;22472;50.848;-1.216;2022-07-21T06:16:05;3.85;;;0.90;;
36445;SDS011;22472;50.848;-1.216;2022-07-21T06:18:33;5.03;;;1.10;;
36445;SDS011;22472;50.848;-1.216;2022-07-21T06:21:00;8.10;;;1.20;;
36445;SDS011;22472;50.848;-1.216;2022-07-21T06:23:27;5.32;;;0.93;;
36445;SDS011;22472;50.848;-1.216;2022-07-21T06:25:54;4.40;;;1.08;;
36445;SDS011;22472;50.848;-1.216;2022-07-21T06:28:23;4.13;;;1.30;;
36445;SDS011;22472;50.848;-1.216;2022-07-21T06:30:50;5.22;;;1.25;;
36445;SDS011;22472;50.848;-1.216;2022-07-21T06:33:18;6.03;;;1.50;;
36445;SDS011;22472;50.848;-1.216;2022-07-21T06:35:45;5.22;;;1.55;;
36445;SDS011;22472;50.848;-1.216;2022-07-21T06:38:12;5.68;;;1.10;;
36445;SDS011;22472;50.848;-1.216;2022-07-21T06:40:39;4.70;;;1.02;;
36445;SDS011;22472;50.848;-1.216;2022-07-21T06:43:06;6.78;;;1.27;;
36445;SDS011;22472;50.848;-1.216;2022-07-21T06:45:35;4.63;;;1.02;;
36445;SDS011;22472;50.848;-1.216;2022-07-21T06:48:02;4.90;;;1.23;;
36445;SDS011;22472;50.848;-1.216;2022-07-21T06:50:31;3.65;;;1.00;;
36445;SDS011;22472;50.848;-1.216;2022-07-21T06:52:58;6.07;;;1.40;;
36445;SDS011;22472;50.848;-1.216;2022-07-21T06:55:26;3.85;;;1.45;;
36445;SDS011;22472;50.848;-1.216;2022-07-21T06:57:53;4.45;;;1.30;;
36445;SDS011;22472;50.848;-1.216;2022-07-21T07:00:20;6.90;;;1.45;;
36445;SDS011;22472;50.848;-1.216;2022-07-21T07:02:49;6.22;;;1.85;;
36445;SDS011;22472;50.848;-1.216;2022-07-21T07:05:16;4.60;;;1.50;;
36445;SDS011;22472;50.848;-1.216;2022-07-21T07:07:43;8.55;;;1.35;;
36445;SDS011;22472;50.848;-1.216;2022-07-21T07:10:13;8.18;;;1.60;;
36445;SDS011;22472;50.848;-1.216;2022-07-21T07:12:40;6.80;;;1.60;;
36445;SDS011;22472;50.848;-1.216;2022-07-21T07:15:08;5.22;;;1.60;;
36445;SDS011;22472;50.848;-1.216;2022-07-21T07:17:35;6.45;;;1.60;;
36445;SDS011;22472;50.848;-1.216;2022-07-21T07:20:05;7.13;;;1.73;;
36445;SDS011;22472;50.848;-1.216;2022-07-21T07:22:33;6.47;;;1.70;;
36445;SDS011;22472;50.848;-1.216;2022-07-21T07:25:00;7.40;;;1.60;;
36445;SDS011;22472;50.848;-1.216;2022-07-21T07:27:27;4.43;;;1.45;;
36445;SDS011;22472;50.848;-1.216;2022-07-21T07:29:54;9.07;;;1.67;;
36445;SDS011;22472;50.848;-1.216;2022-07-21T07:32:21;5.50;;;1.65;;
36445;SDS011;22472;50.848;-1.216;2022-07-21T07:34:48;6.70;;;2.00;;
36445;SDS011;22472;50.848;-1.216;2022-07-21T07:37:17;6.93;;;1.60;;
36445;SDS011;22472;50.848;-1.216;2022-07-21T07:39:44;7.95;;;1.80;;
36445;SDS011;22472;50.848;-1.216;2022-07-21T07:42:11;8.30;;;1.98;;
36445;SDS011;22472;50.848;-1.216;2022-07-21T07:44:38;7.78;;;1.85;;
36445;SDS011;22472;50.848;-1.216;2022-07-21T07:47:05;5.85;;;1.70;;
36445;SDS011;22472;50.848;-1.216;2022-07-21T07:49:32;6.15;;;1.50;;
36445;SDS011;22472;50.848;-1.216;2022-07-21T07:51:59;6.97;;;1.65;;
36445;SDS011;22472;50.848;-1.216;2022-07-21T07:54:29;5.30;;;1.60;;
36445;SDS011;22472;50.848;-1.216;2022-07-21T07:56:56;7.10;;;1.60;;
36445;SDS011;22472;50.848;-1.216;2022-07-21T07:59:23;8.07;;;1.88;;
36445;SDS011;22472;50.848;-1.216;2022-07-21T08:01:50;6.90;;;1.80;;
36445;SDS011;22472;50.848;-1.216;2022-07-21T08:04:17;8.43;;;1.67;;
36445;SDS011;22472;50.848;-1.216;2022-07-21T08:06:44;4.90;;;1.40;;
36445;SDS011;22472;50.848;-1.216;2022-07-21T08:09:11;5.75;;;1.60;;
36445;SDS011;22472;50.848;-1.216;2022-07-21T08:11:40;5.57;;;1.83;;
36445;SDS011;22472;50.848;-1.216;2022-07-21T08:14:08;5.00;;;1.40;;
36445;SDS011;22472;50.848;-1.216;2022-07-21T08:16:35;8.13;;;2.10;;
36445;SDS011;22472;50.848;-1.216;2022-07-21T08:19:02;8.18;;;1.83;;
36445;SDS011;22472;50.848;-1.216;2022-07-21T08:21:30;6.65;;;1.48;;
36445;SDS011;22472;50.848;-1.216;2022-07-21T08:23:58;10.18;;;2.00;;
36445;SDS011;22472;50.848;-1.216;2022-07-21T08:26:25;7.57;;;2.00;;
36445;SDS011;22472;50.848;-1.216;2022-07-21T08:28:54;7.28;;;1.80;;
36445;SDS011;22472;50.848;-1.216;2022-07-21T08:31:22;6.63;;;1.60;;
36445;SDS011;22472;50.848;-1.216;2022-07-21T08:33:50;7.68;;;1.73;;
36445;SDS011;22472;50.848;-1.216;2022-07-21T08:36:17;8.07;;;1.60;;
36445;SDS011;22472;50.848;-1.216;2022-07-21T08:38:44;7.40;;;1.70;;
36445;SDS011;22472;50.848;-1.216;2022-07-21T08:41:12;8.15;;;1.73;;
36445;SDS011;22472;50.848;-1.216;2022-07-21T08:43:39;10.05;;;2.10;;
36445;SDS011;22472;50.848;-1.216;2022-07-21T08:46:07;7.43;;;1.83;;
36445;SDS011;22472;50.848;-1.216;2022-07-21T08:48:36;12.85;;;1.83;;
36445;SDS011;22472;50.848;-1.216;2022-07-21T08:51:03;7.22;;;1.88;;
36445;SDS011;22472;50.848;-1.216;2022-07-21T08:53:31;7.63;;;1.73;;
36445;SDS011;22472;50.848;-1.216;2022-07-21T08:55:58;11.93;;;1.63;;
36445;SDS011;22472;50.848;-1.216;2022-07-21T08:58:25;9.80;;;1.40;;
36445;SDS011;22472;50.848;-1.216;2022-07-21T09:00:52;8.80;;;2.00;;
36445;SDS011;22472;50.848;-1.216;2022-07-21T09:03:22;8.98;;;1.90;;
36445;SDS011;22472;50.848;-1.216;2022-07-21T09:06:00;9.48;;;2.10;;
36445;SDS011;22472;50.848;-1.216;2022-07-21T09:08:33;5.10;;;1.90;;
36445;SDS011;22472;50.848;-1.216;2022-07-21T09:11:11;5.88;;;1.80;;
36445;SDS011;22472;50.848;-1.216;2022-07-21T09:13:39;7.55;;;1.75;;
36445;SDS011;22472;50.848;-1.216;2022-07-21T09:16:08;7.00;;;2.00;;
36445;SDS011;22472;50.848;-1.216;2022-07-21T09:18:47;5.82;;;1.85;;
36445;SDS011;22472;50.848;-1.216;2022-07-21T09:21:17;8.30;;;2.20;;
36445;SDS011;22472;50.848;-1.216;2022-07-21T09:23:45;10.48;;;2.05;;
36445;SDS011;22472;50.848;-1.216;2022-07-21T09:26:12;6.97;;;2.00;;
36445;SDS011;22472;50.848;-1.216;2022-07-21T09:28:39;8.32;;;2.05;;
36445;SDS011;22472;50.848;-1.216;2022-07-21T09:31:07;10.00;;;2.33;;
36445;SDS011;22472;50.848;-1.216;2022-07-21T09:33:36;7.65;;;2.38;;
36445;SDS011;22472;50.848;-1.216;2022-07-21T09:36:06;8.77;;;1.93;;
36445;SDS011;22472;50.848;-1.216;2022-07-21T09:38:35;11.60;;;2.63;;
36445;SDS011;22472;50.848;-1.216;2022-07-21T09:41:07;7.15;;;2.60;;
36445;SDS011;22472;50.848;-1.216;2022-07-21T09:43:39;7.88;;;2.33;;
36445;SDS011;22472;50.848;-1.216;2022-07-21T09:46:09;7.50;;;2.22;;
36445;SDS011;22472;50.848;-1.216;2022-07-21T09:48:38;7.05;;;2.25;;
36445;SDS011;22472;50.848;-1.216;2022-07-21T09:51:20;9.38;;;2.67;;
36445;SDS011;22472;50.848;-1.216;2022-07-21T09:53:49;7.68;;;2.40;;
36445;SDS011;22472;50.848;-1.216;2022-07-21T09:56:17;8.43;;;2.20;;
36445;SDS011;22472;50.848;-1.216;2022-07-21T09:58:45;7.15;;;2.30;;
36445;SDS011;22472;50.848;-1.216;2022-07-21T10:01:14;7.45;;;2.53;;
36445;SDS011;22472;50.848;-1.216;2022-07-21T10:03:43;8.52;;;2.90;;
36445;SDS011;22472;50.848;-1.216;2022-07-21T10:06:10;8.73;;;2.77;;
36445;SDS011;22472;50.848;-1.216;2022-07-21T10:08:40;7.43;;;2.72;;
36445;SDS011;22472;50.848;-1.216;2022-07-21T10:11:08;8.93;;;3.70;;
36445;SDS011;22472;50.848;-1.216;2022-07-21T10:13:36;11.23;;;2.88;;
36445;SDS011;22472;50.848;-1.216;2022-07-21T10:16:04;7.22;;;3.13;;
36445;SDS011;22472;50.848;-1.216;2022-07-21T10:18:32;6.53;;;2.65;;
36445;SDS011;22472;50.848;-1.216;2022-07-21T10:21:06;5.40;;;2.67;;
36445;SDS011;22472;50.848;-1.216;2022-07-21T10:23:42;10.30;;;2.53;;
36445;SDS011;22472;50.848;-1.216;2022-07-21T10:26:10;4.78;;;2.55;;
36445;SDS011;22472;50.848;-1.216;2022-07-21T10:28:37;7.13;;;2.60;;
36445;SDS011;22472;50.848;-1.216;2022-07-21T10:31:12;9.27;;;3.05;;
36445;SDS011;22472;50.848;-1.216;2022-07-21T10:33:50;7.43;;;2.60;;
36445;SDS011;22472;50.848;-1.216;2022-07-21T10:39:24;6.60;;;2.60;;
36445;SDS011;22472;50.848;-1.216;2022-07-21T10:41:53;10.10;;;2.90;;
36445;SDS011;22472;50.848;-1.216;2022-07-21T10:44:43;7.38;;;3.50;;
36445;SDS011;22472;50.848;-1.216;2022-07-21T10:47:12;8.93;;;3.20;;
36445;SDS011;22472;50.848;-1.216;2022-07-21T10:49:42;10.52;;;3.42;;
36445;SDS011;22472;50.848;-1.216;2022-07-21T10:55:20;7.40;;;2.83;;
36445;SDS011;22472;50.848;-1.216;2022-07-21T11:00:46;6.72;;;2.78;;
36445;SDS011;22472;50.848;-1.216;2022-07-21T11:03:25;5.53;;;2.42;;
36445;SDS011;22472;50.848;-1.216;2022-07-21T11:06:13;7.75;;;2.45;;
36445;SDS011;22472;50.848;-1.216;2022-07-21T11:08:49;7.85;;;2.72;;
36445;SDS011;22472;50.848;-1.216;2022-07-21T11:11:19;9.13;;;2.67;;
36445;SDS011;22472;50.848;-1.216;2022-07-21T11:13:57;6.20;;;2.60;;
36445;SDS011;22472;50.848;-1.216;2022-07-21T11:19:27;8.75;;;2.90;;
36445;SDS011;22472;50.848;-1.216;2022-07-21T11:21:55;11.85;;;3.13;;
36445;SDS011;22472;50.848;-1.216;2022-07-21T11:24:24;4.93;;;2.22;;
36445;SDS011;22472;50.848;-1.216;2022-07-21T11:26:54;6.75;;;2.88;;
36445;SDS011;22472;50.848;-1.216;2022-07-21T11:31:49;5.45;;;2.67;;
36445;SDS011;22472;50.848;-1.216;2022-07-21T11:34:16;11.07;;;3.03;;
36445;SDS011;22472;50.848;-1.216;2022-07-21T11:36:44;6.70;;;2.60;;
36445;SDS011;22472;50.848;-1.216;2022-07-21T11:39:12;5.25;;;2.42;;
36445;SDS011;22472;50.848;-1.216;2022-07-21T11:41:41;8.35;;;2.92;;
36445;SDS011;22472;50.848;-1.216;2022-07-21T11:44:10;7.60;;;2.38;;
36445;SDS011;22472;50.848;-1.216;2022-07-21T11:46:44;8.15;;;3.28;;
36445;SDS011;22472;50.848;-1.216;2022-07-21T11:49:13;7.18;;;2.75;;
36445;SDS011;22472;50.848;-1.216;2022-07-21T11:51:45;7.72;;;3.22;;
36445;SDS011;22472;50.848;-1.216;2022-07-21T11:54:20;5.72;;;2.60;;
36445;SDS011;22472;50.848;-1.216;2022-07-21T11:56:49;7.88;;;2.90;;
36445;SDS011;22472;50.848;-1.216;2022-07-21T11:59:18;5.90;;;2.80;;
36445;SDS011;22472;50.848;-1.216;2022-07-21T12:01:52;6.00;;;2.67;;
36445;SDS011;22472;50.848;-1.216;2022-07-21T12:04:28;8.45;;;2.80;;
36445;SDS011;22472;50.848;-1.216;2022-07-21T12:07:07;4.90;;;2.50;;
36445;SDS011;22472;50.848;-1.216;2022-07-21T12:09:44;6.57;;;2.70;;
36445;SDS011;22472;50.848;-1.216;2022-07-21T12:12:12;7.85;;;2.88;;
36445;SDS011;22472;50.848;-1.216;2022-07-21T12:14:48;8.40;;;2.95;;
36445;SDS011;22472;50.848;-1.216;2022-07-21T12:17:17;6.40;;;2.67;;
36445;SDS011;22472;50.848;-1.216;2022-07-21T12:20:04;6.47;;;2.33;;
36445;SDS011;22472;50.848;-1.216;2022-07-21T12:22:36;7.72;;;2.90;;
36445;SDS011;22472;50.848;-1.216;2022-07-21T12:25:05;6.95;;;2.72;;
36445;SDS011;22472;50.848;-1.216;2022-07-21T12:27:34;7.93;;;2.70;;
36445;SDS011;22472;50.848;-1.216;2022-07-21T12:30:04;8.35;;;2.75;;
36445;SDS011;22472;50.848;-1.216;2022-07-21T12:32:37;5.78;;;2.53;;
36445;SDS011;22472;50.848;-1.216;2022-07-21T12:35:22;6.45;;;3.00;;
36445;SDS011;22472;50.848;-1.216;2022-07-21T12:37:54;5.28;;;2.70;;
36445;SDS011;22472;50.848;-1.216;2022-07-21T12:40:23;7.25;;;3.05;;
36445;SDS011;22472;50.848;-1.216;2022-07-21T12:42:56;5.22;;;2.55;;
36445;SDS011;22472;50.848;-1.216;2022-07-21T12:45:44;6.78;;;2.78;;
36445;SDS011;22472;50.848;-1.216;2022-07-21T12:48:17;8.00;;;2.90;;
36445;SDS011;22472;50.848;-1.216;2022-07-21T12:50:58;10.93;;;3.17;;
36445;SDS011;22472;50.848;-1.216;2022-07-21T12:53:26;7.15;;;2.85;;
36445;SDS011;22472;50.848;-1.216;2022-07-21T12:55:54;6.65;;;2.63;;
36445;SDS011;22472;50.848;-1.216;2022-07-21T12:58:20;5.82;;;2.83;;
36445;SDS011;22472;50.848;-1.216;2022-07-21T13:00:49;4.80;;;2.72;;
36445;SDS011;22472;50.848;-1.216;2022-07-21T13:03:16;6.65;;;2.83;;
36445;SDS011;22472;50.848;-1.216;2022-07-21T13:05:43;7.25;;;3.00;;
36445;SDS011;22472;50.848;-1.216;2022-07-21T13:08:10;9.80;;;3.60;;
36445;SDS011;22472;50.848;-1.216;2022-07-21T13:10:38;7.47;;;3.28;;
36445;SDS011;22472;50.848;-1.216;2022-07-21T13:13:05;8.35;;;3.33;;
36445;SDS011;22472;50.848;-1.216;2022-07-21T13:15:32;7.53;;;2.80;;
36445;SDS011;22472;50.848;-1.216;2022-07-21T13:18:00;6.18;;;3.20;;
36445;SDS011;22472;50.848;-1.216;2022-07-21T13:20:27;8.02;;;3.15;;
36445;SDS011;22472;50.848;-1.216;2022-07-21T13:22:54;6.10;;;2.63;;
36445;SDS011;22472;50.848;-1.216;2022-07-21T13:25:21;7.03;;;3.08;;
36445;SDS011;22472;50.848;-1.216;2022-07-21T13:27:49;6.05;;;2.88;;
36445;SDS011;22472;50.848;-1.216;2022-07-21T13:30:18;7.55;;;2.67;;
36445;SDS011;22472;50.848;-1.216;2022-07-21T13:32:45;5.90;;;2.88;;
36445;SDS011;22472;50.848;-1.216;2022-07-21T13:35:14;6.53;;;2.70;;
36445;SDS011;22472;50.848;-1.216;2022-07-21T13:37:41;7.47;;;3.13;;
36445;SDS011;22472;50.848;-1.216;2022-07-21T13:40:08;7.47;;;3.22;;
36445;SDS011;22472;50.848;-1.216;2022-07-21T13:42:36;6.60;;;2.88;;
36445;SDS011;22472;50.848;-1.216;2022-07-21T13:45:03;6.45;;;3.00;;
36445;SDS011;22472;50.848;-1.216;2022-07-21T13:47:32;7.65;;;2.78;;
36445;SDS011;22472;50.848;-1.216;2022-07-21T13:49:59;4.97;;;2.90;;
36445;SDS011;22472;50.848;-1.216;2022-07-21T13:52:28;6.18;;;2.90;;
36445;SDS011;22472;50.848;-1.216;2022-07-21T13:54:55;5.72;;;2.92;;
36445;SDS011;22472;50.848;-1.216;2022-07-21T13:57:22;8.43;;;3.10;;
36445;SDS011;22472;50.848;-1.216;2022-07-21T13:59:49;6.65;;;3.00;;
36445;SDS011;22472;50.848;-1.216;2022-07-21T14:02:16;6.03;;;2.90;;
36445;SDS011;22472;50.848;-1.216;2022-07-21T14:04:43;5.00;;;2.90;;
36445;SDS011;22472;50.848;-1.216;2022-07-21T14:07:10;6.65;;;2.67;;
36445;SDS011;22472;50.848;-1.216;2022-07-21T14:09:40;5.28;;;2.75;;
36445;SDS011;22472;50.848;-1.216;2022-07-21T14:12:08;5.13;;;2.90;;
36445;SDS011;22472;50.848;-1.216;2022-07-21T14:14:36;7.20;;;3.10;;
36445;SDS011;22472;50.848;-1.216;2022-07-21T14:17:03;6.10;;;2.70;;
36445;SDS011;22472;50.848;-1.216;2022-07-21T14:19:30;5.40;;;2.75;;
36445;SDS011;22472;50.848;-1.216;2022-07-21T14:21:57;4.88;;;2.53;;
36445;SDS011;22472;50.848;-1.216;2022-07-21T14:24:24;8.13;;;2.78;;
36445;SDS011;22472;50.848;-1.216;2022-07-21T14:27:10;5.22;;;2.80;;
36445;SDS011;22472;50.848;-1.216;2022-07-21T14:29:37;4.95;;;2.22;;
36445;SDS011;22472;50.848;-1.216;2022-07-21T14:32:05;6.40;;;2.65;;
36445;SDS011;22472;50.848;-1.216;2022-07-21T14:34:32;6.75;;;2.60;;
36445;SDS011;22472;50.848;-1.216;2022-07-21T14:36:59;5.43;;;2.70;;
36445;SDS011;22472;50.848;-1.216;2022-07-21T14:39:25;7.68;;;2.63;;
36445;SDS011;22472;50.848;-1.216;2022-07-21T14:41:52;8.55;;;2.45;;
36445;SDS011;22472;50.848;-1.216;2022-07-21T14:44:21;4.40;;;2.40;;
36445;SDS011;22472;50.848;-1.216;2022-07-21T14:46:48;4.60;;;2.40;;
36445;SDS011;22472;50.848;-1.216;2022-07-21T14:49:15;4.55;;;2.50;;
36445;SDS011;22472;50.848;-1.216;2022-07-21T14:51:42;4.30;;;2.45;;
36445;SDS011;22472;50.848;-1.216;2022-07-21T14:54:09;4.65;;;2.42;;
36445;SDS011;22472;50.848;-1.216;2022-07-21T14:56:36;8.60;;;3.13;;
36445;SDS011;22472;50.848;-1.216;2022-07-21T14:59:03;6.03;;;2.63;;
36445;SDS011;22472;50.848;-1.216;2022-07-21T15:01:31;5.25;;;2.40;;
36445;SDS011;22472;50.848;-1.216;2022-07-21T15:03:59;5.78;;;2.80;;